sensor_id;sensor_type;location;lat;lon;timestamp;temperature;humidity
51873;DHT22;52863;52.504;13.480;2022-11-15T00:01:32;4.30;99.90
51873;DHT22;52863;52.504;13.480;2022-11-15T00:03:59;4.20;99.90
51873;DHT22;52863;52.504;13.480;2022-11-15T00:06:26;4.20;99.90
51873;DHT22;52863;52.504;13.480;2022-11-15T00:08:53;4.10;99.90
51873;DHT22;52863;52.504;13.480;2022-11-15T00:16:13;4.30;99.90
51873;DHT22;52863;52.504;13.480;2022-11-15T00:21:14;4.50;99.90
51873;DHT22;52863;52.504;13.480;2022-11-15T00:23:42;4.30;99.90
51873;DHT22;52863;52.504;13.480;2022-11-15T00:26:11;4.00;99.90
51873;DHT22;52863;52.504;13.480;2022-11-15T00:28:39;4.10;99.90
51873;DHT22;52863;52.504;13.480;2022-11-15T00:31:08;0.80;99.90
51873;DHT22;52863;52.504;13.480;2022-11-15T00:36:02;4.30;99.90
51873;DHT22;52863;52.504;13.480;2022-11-15T00:38:31;4.30;99.90
51873;DHT22;52863;52.504;13.480;2022-11-15T00:40:59;4.40;99.90
51873;DHT22;52863;52.504;13.480;2022-11-15T00:43:33;4.30;99.90
51873;DHT22;52863;52.504;13.480;2022-11-15T00:46:00;4.30;99.90
51873;DHT22;52863;52.504;13.480;2022-11-15T00:53:22;4.10;99.90
51873;DHT22;52863;52.504;13.480;2022-11-15T00:58:16;4.50;99.90
51873;DHT22;52863;52.504;13.480;2022-11-15T01:05:37;4.50;99.90
51873;DHT22;52863;52.504;13.480;2022-11-15T01:08:04;3.70;99.90
51873;DHT22;52863;52.504;13.480;2022-11-15T01:15:25;4.30;99.90
51873;DHT22;52863;52.504;13.480;2022-11-15T01:20:18;4.20;99.90
51873;DHT22;52863;52.504;13.480;2022-11-15T01:22:45;4.00;99.90
51873;DHT22;52863;52.504;13.480;2022-11-15T01:25:11;4.10;99.90
51873;DHT22;52863;52.504;13.480;2022-11-15T01:27:38;4.10;99.90
51873;DHT22;52863;52.504;13.480;2022-11-15T01:30:06;4.10;99.90
51873;DHT22;52863;52.504;13.480;2022-11-15T01:32:34;4.10;99.90
51873;DHT22;52863;52.504;13.480;2022-11-15T01:35:01;4.10;99.90
51873;DHT22;52863;52.504;13.480;2022-11-15T01:44:49;4.20;99.90
51873;DHT22;52863;52.504;13.480;2022-11-15T01:47:18;4.10;99.90
51873;DHT22;52863;52.504;13.480;2022-11-15T01:49:50;4.00;99.90
51873;DHT22;52863;52.504;13.480;2022-11-15T01:52:21;4.00;99.90
51873;DHT22;52863;52.504;13.480;2022-11-15T01:54:50;3.60;99.90
51873;DHT22;52863;52.504;13.480;2022-11-15T01:59:45;3.90;99.90
51873;DHT22;52863;52.504;13.480;2022-11-15T02:02:13;4.00;99.90
51873;DHT22;52863;52.504;13.480;2022-11-15T02:04:41;3.90;99.90
51873;DHT22;52863;52.504;13.480;2022-11-15T02:07:11;3.80;99.90
51873;DHT22;52863;52.504;13.480;2022-11-15T02:09:38;3.90;99.90
51873;DHT22;52863;52.504;13.480;2022-11-15T02:12:06;3.90;99.90
51873;DHT22;52863;52.504;13.480;2022-11-15T02:14:34;3.80;99.90
51873;DHT22;52863;52.504;13.480;2022-11-15T02:17:07;3.80;99.90
51873;DHT22;52863;52.504;13.480;2022-11-15T02:19:53;3.90;99.90
51873;DHT22;52863;52.504;13.480;2022-11-15T02:22:36;4.00;99.90
51873;DHT22;52863;52.504;13.480;2022-11-15T02:25:19;4.10;99.90
51873;DHT22;52863;52.504;13.480;2022-11-15T02:28:10;4.20;99.90
51873;DHT22;52863;52.504;13.480;2022-11-15T02:30:45;4.10;99.90
51873;DHT22;52863;52.504;13.480;2022-11-15T02:33:21;4.10;99.90
51873;DHT22;52863;52.504;13.480;2022-11-15T02:35:56;4.00;99.90
51873;DHT22;52863;52.504;13.480;2022-11-15T02:38:31;4.00;99.90
51873;DHT22;52863;52.504;13.480;2022-11-15T02:41:01;3.80;99.90
51873;DHT22;52863;52.504;13.480;2022-11-15T02:43:31;3.80;99.90
51873;DHT22;52863;52.504;13.480;2022-11-15T02:46:22;3.70;99.90
51873;DHT22;52863;52.504;13.480;2022-11-15T02:49:11;3.70;99.90
51873;DHT22;52863;52.504;13.480;2022-11-15T02:51:39;3.40;99.90
51873;DHT22;52863;52.504;13.480;2022-11-15T02:54:07;3.50;99.90
51873;DHT22;52863;52.504;13.480;2022-11-15T02:59:18;3.70;99.90
51873;DHT22;52863;52.504;13.480;2022-11-15T03:02:01;3.60;99.90
51873;DHT22;52863;52.504;13.480;2022-11-15T03:04:37;3.60;99.90
51873;DHT22;52863;52.504;13.480;2022-11-15T03:07:11;3.60;99.90
51873;DHT22;52863;52.504;13.480;2022-11-15T03:09:43;3.50;99.90
51873;DHT22;52863;52.504;13.480;2022-11-15T03:12:16;3.50;99.90
51873;DHT22;52863;52.504;13.480;2022-11-15T03:14:51;3.50;99.90
51873;DHT22;52863;52.504;13.480;2022-11-15T03:17:24;0.80;99.90
51873;DHT22;52863;52.504;13.480;2022-11-15T03:19:54;3.50;99.90
51873;DHT22;52863;52.504;13.480;2022-11-15T03:22:24;3.40;99.90
51873;DHT22;52863;52.504;13.480;2022-11-15T03:24:54;3.30;99.90
51873;DHT22;52863;52.504;13.480;2022-11-15T03:27:24;3.30;99.90
51873;DHT22;52863;52.504;13.480;2022-11-15T03:29:54;3.30;99.90
51873;DHT22;52863;52.504;13.480;2022-11-15T03:32:25;3.40;99.90
51873;DHT22;52863;52.504;13.480;2022-11-15T03:34:56;3.40;99.90
51873;DHT22;52863;52.504;13.480;2022-11-15T03:37:30;3.40;99.90
51873;DHT22;52863;52.504;13.480;2022-11-15T03:42:30;3.50;99.90
51873;DHT22;52863;52.504;13.480;2022-11-15T03:45:01;3.40;99.90
51873;DHT22;52863;52.504;13.480;2022-11-15T03:47:34;3.30;99.90
51873;DHT22;52863;52.504;13.480;2022-11-15T03:50:07;3.30;99.90
51873;DHT22;52863;52.504;13.480;2022-11-15T03:52:34;3.30;99.90
51873;DHT22;52863;52.504;13.480;2022-11-15T03:55:03;3.30;99.90
51873;DHT22;52863;52.504;13.480;2022-11-15T03:57:31;3.50;99.90
51873;DHT22;52863;52.504;13.480;2022-11-15T03:59:57;3.40;99.90
51873;DHT22;52863;52.504;13.480;2022-11-15T04:04:51;3.30;99.90
51873;DHT22;52863;52.504;13.480;2022-11-15T04:12:31;3.30;99.90
51873;DHT22;52863;52.504;13.480;2022-11-15T04:15:04;3.30;99.90
51873;DHT22;52863;52.504;13.480;2022-11-15T04:17:36;3.30;99.90
51873;DHT22;52863;52.504;13.480;2022-11-15T04:20:05;3.40;99.90
51873;DHT22;52863;52.504;13.480;2022-11-15T04:22:52;3.20;99.90
51873;DHT22;52863;52.504;13.480;2022-11-15T04:25:37;3.40;99.90
51873;DHT22;52863;52.504;13.480;2022-11-15T04:28:04;3.60;99.90
51873;DHT22;52863;52.504;13.480;2022-11-15T04:32:57;3.20;99.90
51873;DHT22;52863;52.504;13.480;2022-11-15T04:35:25;3.20;99.90
51873;DHT22;52863;52.504;13.480;2022-11-15T04:37:51;3.30;99.90
51873;DHT22;52863;52.504;13.480;2022-11-15T04:40:18;4.70;99.90
51873;DHT22;52863;52.504;13.480;2022-11-15T04:47:43;3.20;99.90
51873;DHT22;52863;52.504;13.480;2022-11-15T04:52:43;3.20;99.90
51873;DHT22;52863;52.504;13.480;2022-11-15T04:57:57;3.20;99.90
51873;DHT22;52863;52.504;13.480;2022-11-15T05:00:27;3.10;99.90
51873;DHT22;52863;52.504;13.480;2022-11-15T05:02:55;3.10;99.90
51873;DHT22;52863;52.504;13.480;2022-11-15T05:05:41;3.20;99.90
51873;DHT22;52863;52.504;13.480;2022-11-15T05:08:10;3.30;99.90
51873;DHT22;52863;52.504;13.480;2022-11-15T05:10:36;3.40;99.90
51873;DHT22;52863;52.504;13.480;2022-11-15T05:13:03;3.40;99.90
51873;DHT22;52863;52.504;13.480;2022-11-15T05:15:30;3.30;99.90
51873;DHT22;52863;52.504;13.480;2022-11-15T05:17:59;3.30;99.90
51873;DHT22;52863;52.504;13.480;2022-11-15T05:20:26;3.40;99.90
51873;DHT22;52863;52.504;13.480;2022-11-15T05:22:58;3.40;99.90
51873;DHT22;52863;52.504;13.480;2022-11-15T05:25:26;3.30;99.90
51873;DHT22;52863;52.504;13.480;2022-11-15T05:27:54;3.60;99.90
51873;DHT22;52863;52.504;13.480;2022-11-15T05:30:21;3.70;99.90
51873;DHT22;52863;52.504;13.480;2022-11-15T05:32:47;3.30;99.90
51873;DHT22;52863;52.504;13.480;2022-11-15T05:35:20;3.30;99.90
51873;DHT22;52863;52.504;13.480;2022-11-15T05:37:49;3.30;99.90
51873;DHT22;52863;52.504;13.480;2022-11-15T05:40:16;3.30;99.90
51873;DHT22;52863;52.504;13.480;2022-11-15T05:42:45;3.40;99.90
51873;DHT22;52863;52.504;13.480;2022-11-15T05:45:13;3.20;99.90
51873;DHT22;52863;52.504;13.480;2022-11-15T05:47:40;3.30;99.90
51873;DHT22;52863;52.504;13.480;2022-11-15T05:50:10;3.40;99.90
51873;DHT22;52863;52.504;13.480;2022-11-15T05:52:38;3.20;99.90
51873;DHT22;52863;52.504;13.480;2022-11-15T05:55:07;3.40;99.90
51873;DHT22;52863;52.504;13.480;2022-11-15T05:57:35;3.10;99.90
51873;DHT22;52863;52.504;13.480;2022-11-15T06:00:07;3.20;99.90
51873;DHT22;52863;52.504;13.480;2022-11-15T06:02:36;3.30;99.90
51873;DHT22;52863;52.504;13.480;2022-11-15T06:05:04;3.30;99.90
51873;DHT22;52863;52.504;13.480;2022-11-15T06:07:31;3.60;99.90
51873;DHT22;52863;52.504;13.480;2022-11-15T06:09:58;3.20;99.90
51873;DHT22;52863;52.504;13.480;2022-11-15T06:14:52;3.60;99.90
51873;DHT22;52863;52.504;13.480;2022-11-15T06:17:20;3.20;99.90
51873;DHT22;52863;52.504;13.480;2022-11-15T06:19:48;3.30;99.90
51873;DHT22;52863;52.504;13.480;2022-11-15T06:24:41;3.20;99.90
51873;DHT22;52863;52.504;13.480;2022-11-15T06:27:12;3.30;99.90
51873;DHT22;52863;52.504;13.480;2022-11-15T06:29:39;3.40;99.90
51873;DHT22;52863;52.504;13.480;2022-11-15T06:32:06;3.50;99.90
51873;DHT22;52863;52.504;13.480;2022-11-15T06:34:35;3.30;99.90
51873;DHT22;52863;52.504;13.480;2022-11-15T06:37:02;3.40;99.90
51873;DHT22;52863;52.504;13.480;2022-11-15T06:39:31;3.50;99.90
51873;DHT22;52863;52.504;13.480;2022-11-15T06:49:25;3.60;99.90
51873;DHT22;52863;52.504;13.480;2022-11-15T06:51:54;3.60;99.90
51873;DHT22;52863;52.504;13.480;2022-11-15T06:56:48;3.70;99.90
51873;DHT22;52863;52.504;13.480;2022-11-15T06:59:14;3.80;99.90
51873;DHT22;52863;52.504;13.480;2022-11-15T07:01:42;3.80;99.90
51873;DHT22;52863;52.504;13.480;2022-11-15T07:04:09;4.30;99.90
51873;DHT22;52863;52.504;13.480;2022-11-15T07:06:46;4.00;99.90
51873;DHT22;52863;52.504;13.480;2022-11-15T07:09:14;4.30;99.90
51873;DHT22;52863;52.504;13.480;2022-11-15T07:11:41;4.50;99.90
51873;DHT22;52863;52.504;13.480;2022-11-15T07:16:36;4.60;99.90
51873;DHT22;52863;52.504;13.480;2022-11-15T07:19:03;5.00;99.90
51873;DHT22;52863;52.504;13.480;2022-11-15T07:23:57;5.20;99.90
51873;DHT22;52863;52.504;13.480;2022-11-15T07:26:27;5.10;99.90
51873;DHT22;52863;52.504;13.480;2022-11-15T07:28:55;5.40;99.90
51873;DHT22;52863;52.504;13.480;2022-11-15T07:31:25;5.10;99.90
51873;DHT22;52863;52.504;13.480;2022-11-15T07:33:52;5.50;99.90
51873;DHT22;52863;52.504;13.480;2022-11-15T07:36:19;5.20;99.90
51873;DHT22;52863;52.504;13.480;2022-11-15T07:38:46;5.20;99.90
51873;DHT22;52863;52.504;13.480;2022-11-15T07:41:13;5.40;99.90
51873;DHT22;52863;52.504;13.480;2022-11-15T07:43:41;5.30;99.90
51873;DHT22;52863;52.504;13.480;2022-11-15T07:46:09;5.40;99.90
51873;DHT22;52863;52.504;13.480;2022-11-15T07:48:39;5.60;99.90
51873;DHT22;52863;52.504;13.480;2022-11-15T07:51:11;5.60;99.90
51873;DHT22;52863;52.504;13.480;2022-11-15T07:56:08;5.80;99.90
51873;DHT22;52863;52.504;13.480;2022-11-15T07:58:35;5.50;99.90
51873;DHT22;52863;52.504;13.480;2022-11-15T08:01:04;6.20;99.90
51873;DHT22;52863;52.504;13.480;2022-11-15T08:03:34;6.00;99.90
51873;DHT22;52863;52.504;13.480;2022-11-15T08:06:08;6.10;99.90
51873;DHT22;52863;52.504;13.480;2022-11-15T08:08:39;5.60;99.90
51873;DHT22;52863;52.504;13.480;2022-11-15T08:11:06;6.40;99.90
51873;DHT22;52863;52.504;13.480;2022-11-15T08:13:32;6.40;99.90
51873;DHT22;52863;52.504;13.480;2022-11-15T08:16:01;6.60;99.90
51873;DHT22;52863;52.504;13.480;2022-11-15T08:18:28;6.40;99.90
51873;DHT22;52863;52.504;13.480;2022-11-15T08:20:58;6.50;99.90
51873;DHT22;52863;52.504;13.480;2022-11-15T08:23:29;6.50;99.90
51873;DHT22;52863;52.504;13.480;2022-11-15T08:26:02;6.60;99.90
51873;DHT22;52863;52.504;13.480;2022-11-15T08:28:32;6.70;99.90
51873;DHT22;52863;52.504;13.480;2022-11-15T08:33:30;6.70;99.90
51873;DHT22;52863;52.504;13.480;2022-11-15T08:35:58;7.00;99.90
51873;DHT22;52863;52.504;13.480;2022-11-15T08:38:25;7.10;99.90
51873;DHT22;52863;52.504;13.480;2022-11-15T08:40:58;7.00;99.90
51873;DHT22;52863;52.504;13.480;2022-11-15T08:43:26;7.10;99.90
51873;DHT22;52863;52.504;13.480;2022-11-15T08:45:55;8.80;99.90
51873;DHT22;52863;52.504;13.480;2022-11-15T08:48:22;7.20;99.90
51873;DHT22;52863;52.504;13.480;2022-11-15T08:50:53;7.30;99.90
51873;DHT22;52863;52.504;13.480;2022-11-15T08:53:20;7.40;99.90
51873;DHT22;52863;52.504;13.480;2022-11-15T08:58:13;7.80;99.90
51873;DHT22;52863;52.504;13.480;2022-11-15T09:00:40;7.80;99.90
51873;DHT22;52863;52.504;13.480;2022-11-15T09:03:07;7.70;99.90
51873;DHT22;52863;52.504;13.480;2022-11-15T09:05:36;8.00;99.90
51873;DHT22;52863;52.504;13.480;2022-11-15T09:08:04;8.20;99.90
51873;DHT22;52863;52.504;13.480;2022-11-15T09:10:51;8.10;99.90
51873;DHT22;52863;52.504;13.480;2022-11-15T09:15:45;8.20;99.90
51873;DHT22;52863;52.504;13.480;2022-11-15T09:18:12;8.50;99.90
51873;DHT22;52863;52.504;13.480;2022-11-15T09:20:48;8.40;99.90
51873;DHT22;52863;52.504;13.480;2022-11-15T09:23:15;8.50;99.90
51873;DHT22;52863;52.504;13.480;2022-11-15T09:30:35;8.90;99.90
51873;DHT22;52863;52.504;13.480;2022-11-15T09:33:07;8.90;99.90
51873;DHT22;52863;52.504;13.480;2022-11-15T09:35:33;9.00;99.90
51873;DHT22;52863;52.504;13.480;2022-11-15T09:40:30;9.00;99.90
51873;DHT22;52863;52.504;13.480;2022-11-15T09:43:08;9.30;99.90
51873;DHT22;52863;52.504;13.480;2022-11-15T09:45:43;9.70;99.90
51873;DHT22;52863;52.504;13.480;2022-11-15T09:48:28;9.70;99.90
51873;DHT22;52863;52.504;13.480;2022-11-15T09:50:58;9.70;99.90
51873;DHT22;52863;52.504;13.480;2022-11-15T09:53:31;8.90;99.90
51873;DHT22;52863;52.504;13.480;2022-11-15T09:56:23;9.90;99.90
51873;DHT22;52863;52.504;13.480;2022-11-15T09:59:01;9.90;99.90
51873;DHT22;52863;52.504;13.480;2022-11-15T10:01:39;10.00;99.90
51873;DHT22;52863;52.504;13.480;2022-11-15T10:04:08;10.00;99.90
51873;DHT22;52863;52.504;13.480;2022-11-15T10:06:42;9.40;99.90
51873;DHT22;52863;52.504;13.480;2022-11-15T10:09:13;10.30;99.90
51873;DHT22;52863;52.504;13.480;2022-11-15T10:11:49;10.50;99.90
51873;DHT22;52863;52.504;13.480;2022-11-15T10:14:18;10.40;99.90
51873;DHT22;52863;52.504;13.480;2022-11-15T10:19:53;10.60;99.90
51873;DHT22;52863;52.504;13.480;2022-11-15T10:22:28;10.70;99.90
51873;DHT22;52863;52.504;13.480;2022-11-15T10:25:18;10.80;99.90
51873;DHT22;52863;52.504;13.480;2022-11-15T10:27:52;10.80;99.90
51873;DHT22;52863;52.504;13.480;2022-11-15T10:30:19;10.90;99.90
51873;DHT22;52863;52.504;13.480;2022-11-15T10:32:47;11.10;99.90
51873;DHT22;52863;52.504;13.480;2022-11-15T10:35:23;10.80;99.90
51873;DHT22;52863;52.504;13.480;2022-11-15T10:37:51;11.00;99.90
51873;DHT22;52863;52.504;13.480;2022-11-15T10:40:20;11.10;99.90
51873;DHT22;52863;52.504;13.480;2022-11-15T10:42:48;11.20;99.90
51873;DHT22;52863;52.504;13.480;2022-11-15T10:45:27;11.30;99.90
51873;DHT22;52863;52.504;13.480;2022-11-15T10:50:31;12.70;99.90
51873;DHT22;52863;52.504;13.480;2022-11-15T10:53:00;11.50;99.90
51873;DHT22;52863;52.504;13.480;2022-11-15T10:55:30;11.70;99.90
51873;DHT22;52863;52.504;13.480;2022-11-15T10:58:03;14.80;99.90
51873;DHT22;52863;52.504;13.480;2022-11-15T11:00:33;13.20;99.90
51873;DHT22;52863;52.504;13.480;2022-11-15T11:03:03;14.50;99.90
51873;DHT22;52863;52.504;13.480;2022-11-15T11:05:32;16.10;99.90
51873;DHT22;52863;52.504;13.480;2022-11-15T11:08:21;17.90;99.90
51873;DHT22;52863;52.504;13.480;2022-11-15T11:10:53;18.60;99.90
51873;DHT22;52863;52.504;13.480;2022-11-15T11:13:31;19.70;99.90
51873;DHT22;52863;52.504;13.480;2022-11-15T11:16:14;20.20;99.90
51873;DHT22;52863;52.504;13.480;2022-11-15T11:18:51;20.00;99.90
51873;DHT22;52863;52.504;13.480;2022-11-15T11:21:29;19.90;99.90
51873;DHT22;52863;52.504;13.480;2022-11-15T11:24:11;20.50;99.90
51873;DHT22;52863;52.504;13.480;2022-11-15T11:26:46;20.40;99.90
51873;DHT22;52863;52.504;13.480;2022-11-15T11:29:31;20.20;99.90
51873;DHT22;52863;52.504;13.480;2022-11-15T11:32:06;20.70;99.90
51873;DHT22;52863;52.504;13.480;2022-11-15T11:34:48;20.00;99.90
51873;DHT22;52863;52.504;13.480;2022-11-15T11:37:24;19.10;99.90
51873;DHT22;52863;52.504;13.480;2022-11-15T11:40:05;18.50;99.90
51873;DHT22;52863;52.504;13.480;2022-11-15T11:42:43;18.00;99.90
51873;DHT22;52863;52.504;13.480;2022-11-15T11:45:18;17.50;99.90
51873;DHT22;52863;52.504;13.480;2022-11-15T11:47:54;17.00;99.90
51873;DHT22;52863;52.504;13.480;2022-11-15T11:50:24;16.30;99.90
51873;DHT22;52863;52.504;13.480;2022-11-15T11:52:57;15.80;99.90
51873;DHT22;52863;52.504;13.480;2022-11-15T11:55:32;15.60;99.90
51873;DHT22;52863;52.504;13.480;2022-11-15T11:58:05;15.30;99.90
51873;DHT22;52863;52.504;13.480;2022-11-15T12:00:37;14.90;99.90
51873;DHT22;52863;52.504;13.480;2022-11-15T12:03:09;15.00;99.90
51873;DHT22;52863;52.504;13.480;2022-11-15T12:05:41;14.90;99.90
51873;DHT22;52863;52.504;13.480;2022-11-15T12:08:29;14.50;99.90
51873;DHT22;52863;52.504;13.480;2022-11-15T12:11:07;14.10;99.90
51873;DHT22;52863;52.504;13.480;2022-11-15T12:16:10;14.10;99.90
51873;DHT22;52863;52.504;13.480;2022-11-15T12:21:13;13.90;99.90
51873;DHT22;52863;52.504;13.480;2022-11-15T12:23:44;13.60;99.90
51873;DHT22;52863;52.504;13.480;2022-11-15T12:26:16;13.60;99.90
51873;DHT22;52863;52.504;13.480;2022-11-15T12:28:47;13.20;99.90
51873;DHT22;52863;52.504;13.480;2022-11-15T12:31:37;13.20;99.90
51873;DHT22;52863;52.504;13.480;2022-11-15T12:34:15;13.10;99.90
51873;DHT22;52863;52.504;13.480;2022-11-15T12:36:43;13.10;99.90
51873;DHT22;52863;52.504;13.480;2022-11-15T12:41:38;13.00;99.90
51873;DHT22;52863;52.504;13.480;2022-11-15T12:44:10;12.90;99.90
51873;DHT22;52863;52.504;13.480;2022-11-15T12:47:02;12.70;99.90
51873;DHT22;52863;52.504;13.480;2022-11-15T12:49:47;12.90;99.90
51873;DHT22;52863;52.504;13.480;2022-11-15T12:52:15;12.90;99.90
51873;DHT22;52863;52.504;13.480;2022-11-15T12:54:53;12.90;99.90
51873;DHT22;52863;52.504;13.480;2022-11-15T12:57:47;13.00;99.90
51873;DHT22;52863;52.504;13.480;2022-11-15T13:03:20;13.00;99.90
51873;DHT22;52863;52.504;13.480;2022-11-15T13:06:07;13.10;99.90
51873;DHT22;52863;52.504;13.480;2022-11-15T13:08:46;13.20;99.90
51873;DHT22;52863;52.504;13.480;2022-11-15T13:11:42;12.80;99.90
51873;DHT22;52863;52.504;13.480;2022-11-15T13:17:23;13.00;99.90
51873;DHT22;52863;52.504;13.480;2022-11-15T13:19:58;12.90;99.90
51873;DHT22;52863;52.504;13.480;2022-11-15T13:28:02;13.00;99.90
51873;DHT22;52863;52.504;13.480;2022-11-15T13:33:08;12.90;99.90
51873;DHT22;52863;52.504;13.480;2022-11-15T13:35:40;13.10;99.90
51873;DHT22;52863;52.504;13.480;2022-11-15T13:38:18;13.10;99.90
51873;DHT22;52863;52.504;13.480;2022-11-15T13:40:46;13.20;99.90
51873;DHT22;52863;52.504;13.480;2022-11-15T13:43:26;13.10;99.90
51873;DHT22;52863;52.504;13.480;2022-11-15T13:46:05;13.10;99.90
51873;DHT22;52863;52.504;13.480;2022-11-15T13:51:01;13.00;99.90
51873;DHT22;52863;52.504;13.480;2022-11-15T13:53:30;12.90;99.90
51873;DHT22;52863;52.504;13.480;2022-11-15T13:55:58;12.80;99.90
51873;DHT22;52863;52.504;13.480;2022-11-15T14:01:00;13.00;99.90
51873;DHT22;52863;52.504;13.480;2022-11-15T14:03:29;12.80;99.90
51873;DHT22;52863;52.504;13.480;2022-11-15T14:06:07;12.70;99.90
51873;DHT22;52863;52.504;13.480;2022-11-15T14:11:07;12.70;99.90
51873;DHT22;52863;52.504;13.480;2022-11-15T14:13:34;12.70;99.90
51873;DHT22;52863;52.504;13.480;2022-11-15T14:16:15;12.60;99.90
51873;DHT22;52863;52.504;13.480;2022-11-15T14:18:44;12.60;99.90
51873;DHT22;52863;52.504;13.480;2022-11-15T14:21:13;12.60;99.90
51873;DHT22;52863;52.504;13.480;2022-11-15T14:26:25;12.50;99.90
51873;DHT22;52863;52.504;13.480;2022-11-15T14:28:52;12.40;99.90
51873;DHT22;52863;52.504;13.480;2022-11-15T14:31:23;12.40;99.90
51873;DHT22;52863;52.504;13.480;2022-11-15T14:33:50;12.30;99.90
51873;DHT22;52863;52.504;13.480;2022-11-15T14:36:19;12.30;99.90
51873;DHT22;52863;52.504;13.480;2022-11-15T14:41:19;12.10;99.90
51873;DHT22;52863;52.504;13.480;2022-11-15T14:43:46;12.50;99.90
51873;DHT22;52863;52.504;13.480;2022-11-15T14:46:13;12.20;99.90
51873;DHT22;52863;52.504;13.480;2022-11-15T14:51:12;11.90;99.90
51873;DHT22;52863;52.504;13.480;2022-11-15T14:53:40;11.80;99.90
51873;DHT22;52863;52.504;13.480;2022-11-15T14:58:35;11.70;99.90
51873;DHT22;52863;52.504;13.480;2022-11-15T15:01:12;11.60;99.90
51873;DHT22;52863;52.504;13.480;2022-11-15T15:03:42;11.50;99.90
51873;DHT22;52863;52.504;13.480;2022-11-15T15:08:45;11.20;99.90
51873;DHT22;52863;52.504;13.480;2022-11-15T15:11:14;11.00;99.90
51873;DHT22;52863;52.504;13.480;2022-11-15T15:16:09;11.10;99.90
51873;DHT22;52863;52.504;13.480;2022-11-15T15:18:36;10.90;99.90
51873;DHT22;52863;52.504;13.480;2022-11-15T15:21:12;10.90;99.90
51873;DHT22;52863;52.504;13.480;2022-11-15T15:26:10;11.10;99.90
51873;DHT22;52863;52.504;13.480;2022-11-15T15:28:36;11.10;99.90
51873;DHT22;52863;52.504;13.480;2022-11-15T15:31:05;11.10;99.90
51873;DHT22;52863;52.504;13.480;2022-11-15T15:33:32;10.80;99.90
51873;DHT22;52863;52.504;13.480;2022-11-15T15:35:59;10.70;99.90
51873;DHT22;52863;52.504;13.480;2022-11-15T15:38:26;10.50;99.90
51873;DHT22;52863;52.504;13.480;2022-11-15T15:40:52;10.60;99.90
51873;DHT22;52863;52.504;13.480;2022-11-15T15:43:20;10.80;99.90
51873;DHT22;52863;52.504;13.480;2022-11-15T15:48:16;12.00;99.90
51873;DHT22;52863;52.504;13.480;2022-11-15T15:50:43;10.90;99.90
51873;DHT22;52863;52.504;13.480;2022-11-15T15:53:10;10.60;99.90
51873;DHT22;52863;52.504;13.480;2022-11-15T15:55:40;10.30;99.90
51873;DHT22;52863;52.504;13.480;2022-11-15T15:58:11;10.20;99.90
51873;DHT22;52863;52.504;13.480;2022-11-15T16:00:38;10.00;99.90
51873;DHT22;52863;52.504;13.480;2022-11-15T16:03:05;9.90;99.90
51873;DHT22;52863;52.504;13.480;2022-11-15T16:10:29;9.90;99.90
51873;DHT22;52863;52.504;13.480;2022-11-15T16:12:57;9.90;99.90
51873;DHT22;52863;52.504;13.480;2022-11-15T16:15:25;9.60;99.90
51873;DHT22;52863;52.504;13.480;2022-11-15T16:17:59;9.80;99.90
51873;DHT22;52863;52.504;13.480;2022-11-15T16:20:36;9.60;99.90
51873;DHT22;52863;52.504;13.480;2022-11-15T16:23:05;9.70;99.90
51873;DHT22;52863;52.504;13.480;2022-11-15T16:25:38;9.60;99.90
51873;DHT22;52863;52.504;13.480;2022-11-15T16:28:19;9.70;99.90
51873;DHT22;52863;52.504;13.480;2022-11-15T16:30:46;9.80;99.90
51873;DHT22;52863;52.504;13.480;2022-11-15T16:33:20;7.00;99.90
51873;DHT22;52863;52.504;13.480;2022-11-15T16:35:46;10.10;99.90
51873;DHT22;52863;52.504;13.480;2022-11-15T16:38:15;9.70;99.90
51873;DHT22;52863;52.504;13.480;2022-11-15T16:43:08;10.60;99.90
51873;DHT22;52863;52.504;13.480;2022-11-15T16:45:36;9.60;99.90
51873;DHT22;52863;52.504;13.480;2022-11-15T16:48:03;9.50;99.90
51873;DHT22;52863;52.504;13.480;2022-11-15T16:50:32;10.00;99.90
51873;DHT22;52863;52.504;13.480;2022-11-15T16:53:05;10.30;99.90
51873;DHT22;52863;52.504;13.480;2022-11-15T16:57:59;9.20;99.90
51873;DHT22;52863;52.504;13.480;2022-11-15T17:00:27;6.80;99.90
51873;DHT22;52863;52.504;13.480;2022-11-15T17:02:54;9.00;99.90
51873;DHT22;52863;52.504;13.480;2022-11-15T17:05:22;9.30;99.90
51873;DHT22;52863;52.504;13.480;2022-11-15T17:07:53;9.20;99.90
51873;DHT22;52863;52.504;13.480;2022-11-15T17:10:21;9.10;99.90
51873;DHT22;52863;52.504;13.480;2022-11-15T17:12:48;8.80;99.90
51873;DHT22;52863;52.504;13.480;2022-11-15T17:15:15;8.80;99.90
51873;DHT22;52863;52.504;13.480;2022-11-15T17:17:42;8.40;99.90
51873;DHT22;52863;52.504;13.480;2022-11-15T17:20:14;8.70;99.90
51873;DHT22;52863;52.504;13.480;2022-11-15T17:22:41;8.70;99.90
51873;DHT22;52863;52.504;13.480;2022-11-15T17:25:09;8.70;99.90
51873;DHT22;52863;52.504;13.480;2022-11-15T17:27:36;8.40;99.90
51873;DHT22;52863;52.504;13.480;2022-11-15T17:30:04;8.50;99.90
51873;DHT22;52863;52.504;13.480;2022-11-15T17:32:31;8.70;99.90
51873;DHT22;52863;52.504;13.480;2022-11-15T17:34:58;8.40;99.90
51873;DHT22;52863;52.504;13.480;2022-11-15T17:37:24;8.50;99.90
51873;DHT22;52863;52.504;13.480;2022-11-15T17:42:19;8.40;99.90
51873;DHT22;52863;52.504;13.480;2022-11-15T17:44:46;8.30;99.90
51873;DHT22;52863;52.504;13.480;2022-11-15T17:49:40;8.20;99.90
51873;DHT22;52863;52.504;13.480;2022-11-15T17:54:34;7.90;99.90
51873;DHT22;52863;52.504;13.480;2022-11-15T17:57:01;8.10;99.90
51873;DHT22;52863;52.504;13.480;2022-11-15T17:59:28;7.90;99.90
51873;DHT22;52863;52.504;13.480;2022-11-15T18:01:55;8.10;99.90
51873;DHT22;52863;52.504;13.480;2022-11-15T18:06:53;7.90;99.90
51873;DHT22;52863;52.504;13.480;2022-11-15T18:09:20;7.90;99.90
51873;DHT22;52863;52.504;13.480;2022-11-15T18:11:47;8.00;99.90
51873;DHT22;52863;52.504;13.480;2022-11-15T18:14:20;7.60;99.90
51873;DHT22;52863;52.504;13.480;2022-11-15T18:16:55;8.30;99.90
51873;DHT22;52863;52.504;13.480;2022-11-15T18:19:22;7.90;99.90
51873;DHT22;52863;52.504;13.480;2022-11-15T18:24:26;7.60;99.90
51873;DHT22;52863;52.504;13.480;2022-11-15T18:29:20;7.80;99.90
51873;DHT22;52863;52.504;13.480;2022-11-15T18:31:49;7.50;99.90
51873;DHT22;52863;52.504;13.480;2022-11-15T18:34:21;7.90;99.90
51873;DHT22;52863;52.504;13.480;2022-11-15T18:36:49;7.40;99.90
51873;DHT22;52863;52.504;13.480;2022-11-15T18:39:18;7.70;99.90
51873;DHT22;52863;52.504;13.480;2022-11-15T18:41:46;7.30;99.90
51873;DHT22;52863;52.504;13.480;2022-11-15T18:46:41;9.40;99.90
51873;DHT22;52863;52.504;13.480;2022-11-15T18:49:11;7.20;99.90
51873;DHT22;52863;52.504;13.480;2022-11-15T18:51:39;7.20;99.90